Terminal Aerodrome Forecast
Issued by NWS

Home | Current Version | Previous Version | Text Only | Print | Product List | Glossary On
Versions: 1 2 3 4 5 6 7 8 9 10 11 12 13 14 15 16 17 18 19 20 21 22 23 24 25
000
FTUS41 KOKX 181724
TAFSWF
TAF
KSWF 181724Z 1818/1924 30012G20KT P6SM SCT070
     FM182200 32014G23KT P6SM SCT070
     FM190300 34010KT P6SM SKC
     FM190700 03005KT P6SM FEW250
     FM191200 08007KT P6SM FEW040
     FM191800 13009KT P6SM SCT040
      AMD NOT SKED=

USA.gov is the U.S. government's official web portal to all federal, state and local government web resources and services.